Tiempo atmosférico en la estación meteorológica de Badajoz, Badajoz (175 m.)



Fecha
DESCASC
Temp. máxima en grados centígrados (hora)
DESCASC
Temp. mínima en grados centígrados (hora)
DESCASC
Temp. media en grados centígrados
DESCASC
Racha de viento máxima en m/sg (hora)
DESCASC
Velocidad máxima media en intervalos de 10 minutos(hora)
DESCASC
Precipitaciones diarias en mm
DESCASC
Precipitaciones de 00:00 a 06:00 en mm
DESCASC
Precipitaciones de 06:00 a 12:00 en mm
DESCASC
Precipitaciones de 12:00 a 18:00 en mm
DESCASC
Precipitaciones de 18:00 a 24:00 en mm
DESCASC
07-08-2020 39 (17:10) 21.4 (07:50) 30.2 7.78 (19:10) 4.17 (18:20) 0 0 0 0 0
06-08-2020 40.9 (17:40) 22 (07:50) 31.5 6.67 (20:50) 3.89 (23:30) 0 0 0 0 0
05-08-2020 41.5 (18:10) 19.4 (07:20) 30.4 7.5 (00:40) 4.44 (00:20) 0 0 0 0 0
04-08-2020 38.7 (18:10) 17.5 (07:30) 28.1 9.17 (23:30) 5.56 (23:20) 0 0 0 0 0
03-08-2020 38.4 (18:00) 17 (08:00) 27.7 11.67 (22:30) 7.5 (21:20) 0 0 0 0 0
02-08-2020 37.6 (17:40) 16.1 (00:00) 26.8 11.39 (22:00) 6.39 (21:40) 0 0 0 0 0
01-08-2020 40.5 (17:50) 15.6 (00:00) 28.1 9.72 (23:00) 6.11 (23:00) 0 0 0 0 0
31-07-2020 40 (18:10) 19.3 (08:00) 29.6 10.83 (23:00) 7.22 (23:10) 0 0 0 0 0
30-07-2020 38.4 (17:40) 22.7 (00:00) 30.6 9.72 (14:00) 5.28 (14:10) 0 0 0 0 0
29-07-2020 41.2 (18:30) 16.5 (00:00) 28.9 8.33 (23:20) 5 (23:10) 0 0 0 0 0
28-07-2020 38.5 (18:40) 18.8 (00:00) 28.6 9.44 (23:40) 5.83 (23:50) 0 0 0 0 0
27-07-2020 38.5 (17:00) 19.8 (00:00) 29.1 10.56 (22:50) 6.39 (20:50) 0 0 0 0 0
26-07-2020 42.2 (19:30) 17.8 (00:00) 30 8.89 (00:10) 4.72 (00:20) 0 0 0 0 0
25-07-2020 41 (17:50) 16.4 (00:00) 28.7 10.28 (23:20) 5.83 (23:20) 0 0 0 0 0
24-07-2020 40.1 (17:50) 18.4 (00:00) 29.2 8.89 (23:00) 5.28 (20:50) 0 0 0 0 0
23-07-2020 39.6 (18:10) 20.6 (00:00) 30.1 8.61 (22:30) 5 (22:30) 0 0 0 0 0
22-07-2020 38 (19:00) 20.2 (00:00) 29.1 9.17 (23:30) 5.28 (23:30) 0 0 0 0 0
21-07-2020 32.8 (17:30) 21 (00:00) 26.9 10.83 (17:30) 7.22 (17:00) 4.2 0.2 1.8 1 1.2
20-07-2020 41.3 (18:40) 18.7 (00:00) 30 7.22 (15:30) 4.44 (16:20) 0 0 0 0 0
19-07-2020 38.8 (18:30) 18.6 (00:00) 28.7 9.44 (18:10) 4.44 (15:40) 0 0 0 0 0
18-07-2020 41.3 (18:30) 21.9 (00:00) 31.6 10 (19:40) 6.39 (19:40) 0 0 0 0 0
17-07-2020 42.2 (18:00) 24.3 (00:00) 33.3 8.33 (23:10) 5 (23:20) 0 0 0 0 0
16-07-2020 41.9 (17:30) 23 (00:00) 32.5 6.11 (11:00) 4.17 (02:10) 0 0 0 0 0
15-07-2020 39.4 (17:40) 19.6 (00:00) 29.5 7.22 (00:30) 4.17 (00:20) 0 0 0 0 0
14-07-2020 41 (16:40) 20.5 (00:00) 30.8 11.94 (20:30) 6.39 (21:00) 0 0 0 0 0
13-07-2020 41.3 (18:10) 20.8 (00:00) 31 8.89 (16:00) 5.28 (23:30) 0 0 0 0 0

Gráficas

Temp. máximas Temp. mínimas Temp. medias Precipitaciones Rachas de viento máximas Velocidades máximas media en intervalos de 10 minutos

Datos horarios

Fecha y hora oficial Temperatura (ºC) Velocidad del viento (km/h) Dirección del viento Racha (km/h) Dirección de racha Precipitación (mm) Presión (hPa) Tendencia (hPa) Humedad (%)
2020-08-11 23:00:00 24.6 21 Noroeste 37 Noroeste 0 -- -- 57
2020-08-11 22:00:00 27 15 Noroeste 26 Oeste 0 -- -- 46
2020-08-11 21:00:00 29.5 16 Noroeste 32 Noroeste 0 -- -- 39
2020-08-11 20:00:00 32 13 Oeste 29 Noroeste 0 -- -- 34
2020-08-11 19:00:00 33 14 Sudoeste 28 Sudoeste 0 -- -- 31
2020-08-11 18:00:00 33.7 12 Sudoeste 24 Sudoeste 0 -- -- 29
2020-08-11 17:00:00 33.4 14 Sur 26 Sur 0 -- -- 28
2020-08-11 16:00:00 32.4 17 Sudoeste 27 Sudoeste 0 -- -- 30
2020-08-11 15:00:00 31.3 10 Sudoeste 27 Oeste 0 -- -- 38
2020-08-11 14:00:00 29.4 10 Sudoeste 18 Sudoeste 0 -- -- 42
2020-08-11 13:00:00 26.9 7 Oeste 15 Oeste 0 -- -- 50
2020-08-11 12:00:00 23.8 5 Sudeste 14 Sudoeste 0 -- -- 56
2020-08-11 11:00:00 21.2 5 Sur 11 Sur 0 -- -- 67
2020-08-11 10:00:00 19.1 5 Noroeste 13 Noroeste 0 -- -- 76
2020-08-11 09:00:00 18 8 Noroeste 15 Noroeste 0 -- -- 81
2020-08-11 08:00:00 16.7 3 Norte 9 Oeste 0 -- -- 83
2020-08-11 07:00:00 17.1 3 Norte 9 Noroeste 0 -- -- 82
2020-08-11 06:00:00 17.8 4 Noroeste 10 Noroeste 0 -- -- 77
2020-08-11 05:00:00 18.4 6 Noroeste 13 Noroeste 0 -- -- 75
2020-08-11 04:00:00 18.6 4 Noroeste 12 Noroeste 0 -- -- 71
2020-08-11 03:00:00 20 6 Noroeste 14 Noroeste 0 -- -- 64
2020-08-11 02:00:00 21.1 7 Noroeste 22 Noroeste 0 -- -- 58
2020-08-11 01:00:00 22.7 9 Noroeste 19 Oeste 0 -- -- 56
2020-08-11 00:00:00 24.7 10 Oeste 21 Oeste 0 -- -- 51
2020-08-10 23:00:00 27.2 9 Noroeste 18 Noroeste 0 -- -- 44
2020-08-10 22:00:00 29.1 12 Oeste 23 Noroeste 0 -- -- 38
2020-08-10 21:00:00 32.1 15 Noroeste 27 Noroeste 0 -- -- 29
2020-08-10 20:00:00 34.8 14 Oeste 26 Oeste 0 -- -- 26
2020-08-10 19:00:00 36.3 8 Sudoeste 23 Sudoeste 0 -- -- 23
2020-08-10 18:00:00 35.8 12 Sudoeste 24 Sudoeste 0 -- -- 25
2020-08-10 17:00:00 35.4 10 Sudoeste 24 Oeste 0 -- -- 26
2020-08-10 16:00:00 34.4 8 Sudoeste 20 Sur 0 -- -- 28
2020-08-10 15:00:00 32.6 5 Sur 21 Sudeste 0 -- -- 33
2020-08-10 14:00:00 30.4 8 Sudoeste 16 Sur 0 -- -- 40
2020-08-10 13:00:00 27.7 8 Sur 17 Sur 0 -- -- 47
2020-08-10 12:00:00 25.2 5 Sudoeste 13 Sur 0 -- -- 54
2020-08-10 11:00:00 23.2 6 Sur 15 Noroeste 0 -- -- 60
2020-08-10 10:00:00 20.3 7 Noroeste 19 Noroeste 0 -- -- 71
2020-08-10 09:00:00 17.4 6 Noroeste 11 Oeste 0 -- -- 84
2020-08-10 08:00:00 15.8 4 Oeste 6 Noroeste 0 -- -- 89
2020-08-10 07:00:00 15.7 2 Noroeste 6 Norte 0 -- -- 88
2020-08-10 06:00:00 16.6 0 Calma 8 Norte 0 -- -- 85
2020-08-10 05:00:00 17.8 0 Calma 11 Noroeste 0 -- -- 78
2020-08-10 04:00:00 19 10 Noroeste 24 Oeste 0 -- -- 75
2020-08-10 03:00:00 19.7 11 Noroeste 19 Noroeste 0 -- -- 71
2020-08-10 02:00:00 20.7 8 Noroeste 16 Noroeste 0 -- -- 67
2020-08-10 01:00:00 22.3 10 Noroeste 22 Oeste 0 -- -- 61
2020-08-10 00:00:00 24.3 15 Noroeste 26 Noroeste 0 -- -- 54
2020-08-09 23:00:00 27.4 13 Noroeste 28 Noroeste 0 -- -- 43
2020-08-09 22:00:00 29.6 14 Noroeste 32 Noroeste 0 -- -- 36
2020-08-09 21:00:00 33 17 Noroeste 32 Oeste 0 -- -- 28
2020-08-09 20:00:00 35.1 16 Oeste 28 Oeste 0 -- -- 26
2020-08-09 19:00:00 37.3 12 Noroeste 23 Sudoeste 0 -- -- 26
2020-08-09 18:00:00 37.8 14 Noroeste 26 Noroeste 0 -- -- 27
2020-08-09 17:00:00 37.4 9 Sudoeste 21 Sudoeste 0 -- -- 27
2020-08-09 16:00:00 37.3 8 Oeste 17 Sudoeste 0 -- -- 27
2020-08-09 15:00:00 35.9 6 Oeste 19 Sur 0 -- -- 30
2020-08-09 14:00:00 33.9 9 Sudoeste 16 Sudeste 0 -- -- 33
2020-08-09 13:00:00 31.9 6 Sudoeste 13 Noroeste 0 -- -- 39
2020-08-09 12:00:00 28.7 5 Oeste 14 Noroeste 0 -- -- 45
2020-08-09 11:00:00 25.4 6 Noroeste 13 Nordeste 0 -- -- 53
2020-08-09 10:00:00 22.5 5 Noroeste 13 Norte 0 -- -- 62
2020-08-09 09:00:00 19.8 9 Noroeste 14 Noroeste 0 -- -- 72
2020-08-09 08:00:00 17.8 7 Norte 13 Noroeste 0 -- -- 77
2020-08-09 07:00:00 18.6 3 Norte 8 Norte 0 -- -- 69
2020-08-09 06:00:00 20 4 Noroeste 7 Noroeste 0 -- -- 66
2020-08-09 05:00:00 20.6 2 Oeste 5 Noroeste 0 -- -- 60
2020-08-09 04:00:00 22.2 3 Norte 11 Oeste 0 -- -- 55
2020-08-09 03:00:00 23.7 4 Noroeste 11 Oeste 0 -- -- 52
2020-08-09 02:00:00 25.2 3 Oeste 14 Noroeste 0 -- -- 49
2020-08-09 01:00:00 26.6 9 Noroeste 25 Oeste 0 -- -- 46
2020-08-09 00:00:00 28.4 14 Noroeste 28 Noroeste 0 -- -- 41
2020-08-08 23:00:00 30.1 12 Noroeste 24 Noroeste 0 -- -- 39
2020-08-08 22:00:00 31.9 11 Noroeste 20 Oeste 0 -- -- 36
2020-08-08 21:00:00 34.8 14 Oeste 23 Oeste 0 -- -- 33
2020-08-08 20:00:00 37.3 9 Sudoeste 22 Sudoeste 0 -- -- 29
2020-08-08 19:00:00 37.4 12 Sudoeste 25 Sudoeste 0 -- -- 32
2020-08-08 18:00:00 37.3 15 Sudoeste 32 Oeste 0 -- -- 31
2020-08-08 17:00:00 37 16 Sudoeste 26 Sudoeste 0 -- -- 32
2020-08-08 16:00:00 35.9 14 Sudoeste 27 Sudoeste 0 -- -- 34
2020-08-08 15:00:00 34.6 12 Sudoeste 22 Sudoeste 0 -- -- 34
2020-08-08 14:00:00 32.9 10 Oeste 24 Sudoeste 0 -- -- 35
2020-08-08 13:00:00 30.5 10 Sudoeste 19 Sur 0 -- -- 42
2020-08-08 12:00:00 28.1 6 Sudoeste 12 Sudoeste 0 -- -- 50
2020-08-08 11:00:00 26.8 4 Sudoeste 9 Sudoeste 0 -- -- 55
2020-08-08 10:00:00 25.4 3 Este 8 Noroeste 0 -- -- 59
2020-08-08 09:00:00 22.2 4 Norte 9 Norte 0 -- -- 70
2020-08-08 08:00:00 20.5 3 Norte 5 Norte 0 -- -- 71
2020-08-08 07:00:00 21.6 0 Calma 9 Oeste 0 -- -- 69
2020-08-08 06:00:00 22.7 4 Sudoeste 18 Noroeste 0 -- -- 65
2020-08-08 05:00:00 23.5 9 Norte 15 Noroeste 0 -- -- 61
2020-08-08 04:00:00 24.5 2 Noroeste 8 Noroeste 0 -- -- 59
2020-08-08 03:00:00 25.7 4 Norte 7 Norte 0 -- -- 57
2020-08-08 02:00:00 27.1 3 Sudoeste 9 Sudoeste 0 -- -- 58
2020-08-08 01:00:00 28 5 Sudoeste 16 Oeste 0 -- -- 54
2020-08-08 00:00:00 29.1 9 Oeste 20 Oeste 0 -- -- 50
2020-08-07 23:00:00 30.1 8 Sudoeste 13 Sudoeste 0 -- -- 47
2020-08-07 22:00:00 31.5 8 Sudoeste 15 Sudoeste 0 -- -- 43
2020-08-07 21:00:00 34.2 9 Sudoeste 21 Sudoeste 0 -- -- 38
2020-08-07 20:00:00 36.6 11 Sudoeste 28 Sudoeste 0 -- -- 32
2020-08-07 19:00:00 37.7 15 Sudoeste 27 Sudoeste 0 -- -- 30
2020-08-07 18:00:00 38.4 12 Sudoeste 25 Oeste 0 -- -- 28
2020-08-07 17:00:00 38.9 10 Oeste 19 Sudoeste 0 -- -- 26
2020-08-07 16:00:00 37.3 9 Sudoeste 20 Sudoeste 0 -- -- 28
2020-08-07 15:00:00 36.6 8 Sur 19 Oeste 0 -- -- 30
2020-08-07 14:00:00 35.4 4 Oeste 20 Sudoeste 0 -- -- 30
2020-08-07 13:00:00 33.2 8 Sudoeste 18 Sur 0 -- -- 35
2020-08-07 12:00:00 31.5 9 Sudoeste 21 Sudoeste 0 -- -- 41
2020-08-07 11:00:00 28.9 12 Sudoeste 21 Oeste 0 -- -- 46
2020-08-07 10:00:00 26.5 7 Sudoeste 16 Sudoeste 0 -- -- 54
2020-08-07 09:00:00 23.6 3 Noroeste 8 Oeste 0 -- -- 60
2020-08-07 08:00:00 21.5 0 Calma 9 Oeste 0 -- -- 64
2020-08-07 07:00:00 23.2 5 Oeste 13 Sudoeste 0 -- -- 61
2020-08-07 06:00:00 23.7 7 Sudoeste 10 Sudoeste 0 -- -- 59
2020-08-07 05:00:00 24.4 6 Sudoeste 11 Sudoeste 0 -- -- 55
2020-08-07 04:00:00 25 6 Sur 13 Sur 0 -- -- 52
2020-08-07 03:00:00 26 7 Sudoeste 14 Sudoeste 0 -- -- 50
2020-08-07 02:00:00 27.3 9 Sudoeste 15 Sudoeste 0 -- -- 47
2020-08-07 01:00:00 28.8 7 Sudoeste 17 Oeste 0 -- -- 42
2020-08-07 00:00:00 29.8 8 Oeste 23 Oeste 0 -- -- 44
2020-08-06 23:00:00 31.9 6 Sudoeste 19 Oeste 0 -- -- 39
2020-08-06 22:00:00 33.6 9 Sudoeste 21 Sudoeste 0 -- -- 34
2020-08-06 21:00:00 35.9 11 Sudoeste 24 Sudoeste 0 -- -- 32
2020-08-06 20:00:00 38.9 10 Sudoeste 22 Sudoeste 0 -- -- 27
2020-08-06 19:00:00 40.2 12 Oeste 21 Oeste 0 -- -- 24
2020-08-06 18:00:00 40.6 9 Sudoeste 21 Noroeste 0 -- -- 24
2020-08-06 17:00:00 40.8 7 Sur 23 Oeste 0 -- -- 24
2020-08-06 16:00:00 39.9 6 Oeste 17 Noroeste 0 -- -- 25
2020-08-06 15:00:00 38.4 8 Oeste 18 Oeste 0 -- -- 28
2020-08-06 14:00:00 36.5 8 Sudoeste 16 Sur 0 -- -- 31
2020-08-06 13:00:00 34.7 9 Sudoeste 17 Sur 0 -- -- 35
2020-08-06 12:00:00 32.6 6 Sudoeste 13 Oeste 0 -- -- 38
2020-08-06 11:00:00 29.8 3 Sudeste 7 Sudeste 0 -- -- 42
2020-08-06 10:00:00 26.2 4 Sur 8 Sudoeste 0 -- -- 50
2020-08-06 09:00:00 23.7 4 Oeste 8 Sudoeste 0 -- -- 56
2020-08-06 08:00:00 22 4 Sudoeste 9 Sudoeste 0 -- -- 61
2020-08-06 07:00:00 22.7 5 Sudoeste 16 Sudoeste 0 -- -- 60
2020-08-06 06:00:00 23.4 7 Sudoeste 13 Oeste 0 -- -- 58
2020-08-06 05:00:00 24.3 4 Sudoeste 14 Sudoeste 0 -- -- 54
2020-08-06 04:00:00 25.2 6 Sudoeste 13 Sudoeste -- -- -- 49
2020-08-06 03:00:00 25.5 5 Sudoeste 9 Sudoeste 0 -- -- 48
2020-08-06 02:00:00 27.1 0 Calma 12 Noroeste 0 -- -- 40
2020-08-06 01:00:00 28.4 5 Sur 12 Noroeste 0 -- -- 40
2020-08-06 00:00:00 30.8 9 Noroeste 18 Oeste 0 -- -- 34
2020-08-05 23:00:00 30.9 9 Oeste 19 Noroeste 0 -- -- 35
2020-08-05 22:00:00 33.4 0 Calma 3 Sudoeste 0 -- -- 28
2020-08-05 21:00:00 38.2 0 Calma 12 Oeste 0 -- -- 25
2020-08-05 20:00:00 40.5 5 Noroeste 16 Noroeste 0 -- -- 21
2020-08-05 19:00:00 41.1 5 Norte 14 Norte 0 -- -- 20
2020-08-05 18:00:00 41.1 4 Norte 18 Nordeste 0 -- -- 20
2020-08-05 17:00:00 41.2 6 Nordeste 19 Nordeste 0 -- -- 20
2020-08-05 16:00:00 40.4 6 Nordeste 15 Este 0 -- -- 19
2020-08-05 15:00:00 38.4 8 Sur 17 Sudoeste 0 -- -- 24
2020-08-05 14:00:00 36.9 4 Sur 14 Sudoeste 0 -- -- 26
2020-08-05 13:00:00 34.4 4 Sur 12 Sudoeste 0 -- -- 30
2020-08-05 12:00:00 31.9 5 Sur 10 Sur 0 -- -- 34
2020-08-05 11:00:00 28.2 4 Sur 10 Sudoeste 0 -- -- 46
2020-08-05 10:00:00 25 4 Sur 8 Sur 0 -- -- 58
2020-08-05 09:00:00 22 2 Oeste 8 Noroeste 0 -- -- 63
2020-08-05 08:00:00 19.4 5 Norte 8 Noroeste 0 -- -- 70
2020-08-05 07:00:00 19.8 0 Calma 6 Norte 0 -- -- 67
2020-08-05 06:00:00 20.2 3 Norte 8 Noroeste 0 -- -- 65
2020-08-05 05:00:00 21 7 Noroeste 9 Norte 0 -- -- 62
2020-08-05 04:00:00 23 3 Noroeste 8 Noroeste 0 -- -- 55
2020-08-05 03:00:00 24.7 5 Noroeste 17 Noroeste 0 -- -- 52
2020-08-05 02:00:00 26.4 12 Noroeste 26 Noroeste 0 -- -- 48
2020-08-05 01:00:00 27.5 14 Noroeste 27 Noroeste 0 -- -- 45
2020-08-05 00:00:00 29 15 Noroeste 33 Noroeste 0 -- -- 42
2020-08-04 23:00:00 30.6 20 Noroeste 32 Noroeste 0 -- -- 41
2020-08-04 22:00:00 32 5 Oeste 12 Oeste 0 -- -- 30
2020-08-04 21:00:00 36.4 6 Sudoeste 12 Sur 0 -- -- 25
2020-08-04 20:00:00 37.8 7 Sudoeste 15 Sudoeste 0 -- -- 22
2020-08-04 19:00:00 38.5 8 Sur 16 Sudoeste 0 -- -- 22
2020-08-04 18:00:00 38.6 8 Sudoeste 17 Sur 0 -- -- 22
2020-08-04 17:00:00 38.3 9 Sudoeste 17 Sudoeste 0 -- -- 23
2020-08-04 16:00:00 38.4 4 Norte 15 Nordeste 0 -- -- 22
2020-08-04 15:00:00 35.9 4 Noroeste 13 Este 0 -- -- 24
2020-08-04 14:00:00 34.8 6 Este 18 Este 0 -- -- 27
2020-08-04 13:00:00 33.4 6 Nordeste 18 Nordeste 0 -- -- 30
2020-08-04 12:00:00 30.5 7 Este 16 Nordeste 0 -- -- 40
2020-08-04 11:00:00 27.6 8 Nordeste 15 Norte 0 -- -- 47
2020-08-04 10:00:00 22.2 3 Noroeste 8 Sur 0 -- -- 65
2020-08-04 09:00:00 19.1 4 Sur 9 Oeste 0 -- -- 78
2020-08-04 08:00:00 17.5 2 Sudoeste 8 Sur 0 -- -- 82
2020-08-04 07:00:00 17.8 5 Noroeste 10 Noroeste 0 -- -- 80
2020-08-04 06:00:00 18.2 4 Noroeste 12 Oeste 0 -- -- 78
2020-08-04 05:00:00 18.7 10 Noroeste 20 Noroeste 0 -- -- 76
2020-08-04 04:00:00 19.7 6 Noroeste 11 Noroeste 0 -- -- 71
2020-08-04 03:00:00 20.3 4 Noroeste 14 Noroeste 0 -- -- 70
2020-08-04 02:00:00 21.3 11 Noroeste 28 Noroeste 0 -- -- 67
2020-08-04 01:00:00 22.2 14 Noroeste 31 Noroeste 0 -- -- 65
2020-08-04 00:00:00 23.7 18 Noroeste 40 Noroeste 0 -- -- 59
2020-08-03 23:00:00 25.7 22 Noroeste 42 Noroeste 0 -- -- 55
2020-08-03 22:00:00 28.3 22 Noroeste 41 Oeste 0 -- -- 46
2020-08-03 21:00:00 31.2 23 Noroeste 40 Oeste 0 -- -- 37
2020-08-03 20:00:00 34 22 Oeste 40 Oeste 0 -- -- 30
2020-08-03 19:00:00 37.4 15 Noroeste 27 Oeste 0 -- -- 24
2020-08-03 18:00:00 38.4 11 Noroeste 35 Noroeste 0 -- -- 23
2020-08-03 17:00:00 37.3 13 Noroeste 37 Noroeste 0 -- -- 24
2020-08-03 16:00:00 37 9 Norte 25 Nordeste 0 -- -- 25
2020-08-03 15:00:00 35.6 8 Noroeste 28 Oeste 0 -- -- 26
2020-08-03 14:00:00 33.2 12 Noroeste 27 Noroeste 0 -- -- 31
2020-08-03 13:00:00 30.9 13 Noroeste 24 Oeste 0 -- -- 34
2020-08-03 12:00:00 27.9 13 Noroeste 25 Oeste 0 -- -- 38
2020-08-03 11:00:00 24.3 13 Noroeste 26 Noroeste 0 -- -- 48
2020-08-03 10:00:00 21.6 18 Noroeste 27 Noroeste 0 -- -- 55
2020-08-03 09:00:00 18.4 9 Oeste 26 Noroeste 0 -- -- 68
2020-08-03 08:00:00 17 15 Noroeste 31 Noroeste 0 -- -- 76
2020-08-03 07:00:00 18.1 8 Oeste 22 Sudoeste 0 -- -- 69
2020-08-03 06:00:00 18.8 7 Oeste 26 Oeste 0 -- -- 64
2020-08-03 05:00:00 19.4 7 Noroeste 30 Noroeste 0 -- -- 60
2020-08-03 04:00:00 19.9 10 Noroeste 24 Oeste 0 -- -- 55
2020-08-03 03:00:00 20.3 14 Noroeste 31 Noroeste 0 -- -- 55
2020-08-03 02:00:00 21.7 11 Noroeste 27 Noroeste 0 -- -- 51
2020-08-03 01:00:00 22.3 12 Oeste 34 Oeste 0 -- -- 51
2020-08-03 00:00:00 23.6 10 Oeste 21 Oeste 0 -- -- 49
2020-08-02 23:00:00 25.4 14 Oeste 31 Noroeste 0 -- -- 44
2020-08-02 22:00:00 27.8 19 Noroeste 41 Noroeste 0 -- -- 39
2020-08-02 21:00:00 31 22 Oeste 38 Noroeste 0 -- -- 34
2020-08-02 20:00:00 34.5 19 Oeste 35 Oeste 0 -- -- 30
2020-08-02 19:00:00 35.4 16 Oeste 31 Oeste 0 -- -- 23
2020-08-02 18:00:00 37.2 11 Oeste 29 Noroeste 0 -- -- 21
2020-08-02 17:00:00 36.6 12 Oeste 23 Oeste 0 -- -- 23
2020-08-02 16:00:00 36 11 Noroeste 24 Noroeste 0 -- -- 26
2020-08-02 15:00:00 34.5 8 Noroeste 21 Sudoeste 0 -- -- 30
2020-08-02 14:00:00 31.1 6 Oeste 19 Sur 0 -- -- 39
2020-08-02 13:00:00 28.2 10 Sur 22 Sur 0 -- -- 45
2020-08-02 12:00:00 25.9 7 Sudoeste 14 Sur 0 -- -- 51
2020-08-02 11:00:00 23.6 7 Noroeste 17 Noroeste 0 -- -- 56
2020-08-02 10:00:00 19.9 4 Sudoeste 11 Oeste 0 -- -- 68
2020-08-02 09:00:00 17.8 3 Sudoeste 9 Noroeste 0 -- -- 76
2020-08-02 08:00:00 16.1 4 Oeste 11 Sudoeste 0 -- -- 81
2020-08-02 07:00:00 16.6 4 Oeste 13 Oeste 0 -- -- 78
2020-08-02 06:00:00 17.5 4 Oeste 19 Sudoeste 0 -- -- 72
2020-08-02 05:00:00 18.2 8 Oeste 18 Sudoeste 0 -- -- 69
2020-08-02 04:00:00 19.1 8 Noroeste 13 Oeste 0 -- -- 59
2020-08-02 03:00:00 20.8 8 Noroeste 14 Noroeste 0 -- -- 52
2020-08-02 02:00:00 22 8 Noroeste 20 Oeste 0 -- -- 52
2020-08-02 01:00:00 23.6 9 Oeste 24 Noroeste 0 -- -- 52
2020-08-02 00:00:00 25.7 16 Noroeste 33 Noroeste 0 -- -- 50
2020-08-01 23:00:00 28.2 22 Oeste 35 Oeste 0 -- -- 46
2020-08-01 22:00:00 30.6 13 Oeste 28 Oeste 0 -- -- 40
2020-08-01 21:00:00 33.5 19 Oeste 33 Noroeste 0 -- -- 34
2020-08-01 20:00:00 36.8 18 Oeste 31 Oeste 0 -- -- 30
2020-08-01 19:00:00 39.2 15 Noroeste 31 Oeste 0 -- -- 27
2020-08-01 18:00:00 40.1 15 Noroeste 27 Oeste 0 -- -- 26
2020-08-01 17:00:00 40 13 Noroeste 27 Oeste 0 -- -- 23
2020-08-01 16:00:00 38.7 12 Noroeste 22 Oeste 0 -- -- 22
2020-08-01 15:00:00 36.7 8 Oeste 19 Sur 0 -- -- 22
2020-08-01 14:00:00 34.1 8 Sudoeste 21 Sur 0 -- -- 30
2020-08-01 13:00:00 31 8 Sur 16 Sur 0 -- -- 39
2020-08-01 12:00:00 27.6 7 Sudoeste 15 Sur 0 -- -- 47
2020-08-01 11:00:00 24.3 6 Sudoeste 14 Sudoeste 0 -- -- 55
2020-08-01 10:00:00 21.7 6 Sudoeste 11 Oeste 0 -- -- 61
2020-08-01 09:00:00 19.3 8 Noroeste 14 Noroeste 0 -- -- 74
2020-08-01 08:00:00 16.5 6 Noroeste 13 Noroeste 0 -- -- 78
2020-08-01 07:00:00 15.7 3 Noroeste 5 Noroeste 0 -- -- 65
2020-08-01 06:00:00 17 0 Calma 9 Noroeste 0 -- -- 61
2020-08-01 05:00:00 17.9 5 Noroeste 8 Noroeste 0 -- -- 53
2020-08-01 04:00:00 20.7 3 Nordeste 6 Sudoeste 0 -- -- 47
2020-08-01 03:00:00 23.4 3 Oeste 10 Oeste 0 -- -- 42
2020-08-01 02:00:00 24.4 0 Calma 24 Oeste 0 -- -- 40
2020-08-01 01:00:00 26.1 14 Noroeste 32 Oeste 0 -- -- 38
2020-08-01 00:00:00 28 20 Noroeste 39 Noroeste 0 -- -- 33
2020-07-31 23:00:00 30.3 23 Noroeste 39 Noroeste 0 -- -- 32
2020-07-31 22:00:00 33 8 Noroeste 20 Oeste 0 -- -- 31
2020-07-31 21:00:00 36.3 12 Noroeste 22 Oeste 0 -- -- 27
2020-07-31 20:00:00 38.9 12 Noroeste 22 Sudoeste 0 -- -- 24
2020-07-31 19:00:00 39.6 12 Sur 21 Sudoeste 0 -- -- 23
2020-07-31 18:00:00 39.8 9 Sudoeste 20 Sur 0 -- -- 22
2020-07-31 17:00:00 39.4 10 Sudoeste 20 Sur 0 -- -- 21
2020-07-31 16:00:00 38.6 6 Sudoeste 18 Oeste 0 -- -- 24
2020-07-31 15:00:00 37.3 9 Sudoeste 18 Sur 0 -- -- 23
2020-07-31 14:00:00 35.8 6 Sur 16 Sur 0 -- -- 26
2020-07-31 13:00:00 33.7 5 Sudoeste 12 Sur 0 -- -- 34
2020-07-31 12:00:00 31.1 5 Sudoeste 11 Sur 0 -- -- 41
2020-07-31 11:00:00 27.7 7 Sudoeste 12 Sur 0 -- -- 57
2020-07-31 10:00:00 26.1 3 Sur 7 Sudoeste 0 -- -- 58
2020-07-31 09:00:00 22.9 5 Norte 9 Norte 0 -- -- 58
2020-07-31 08:00:00 19.3 2 Oeste 4 Oeste 0 -- -- 66
2020-07-31 07:00:00 20.4 3 Oeste 8 Sur 0 -- -- 64
2020-07-31 06:00:00 20.7 3 Sudoeste 7 Sudoeste 0 -- -- 63
2020-07-31 05:00:00 22.1 3 Sudoeste 9 Sudoeste 0 -- -- 60
2020-07-31 04:00:00 22.1 4 Sudoeste 9 Sudoeste 0 -- -- 51
2020-07-31 03:00:00 24.4 4 Sudoeste 9 Sudoeste 0 -- -- 47
2020-07-31 02:00:00 26.1 4 Sudoeste 14 Noroeste 0 -- -- 46
2020-07-31 01:00:00 27.5 10 Noroeste 24 Noroeste 0 -- -- 40
2020-07-31 00:00:00 29.1 14 Noroeste 24 Noroeste 0 -- -- 42
2020-07-30 23:00:00 30.4 9 Noroeste 14 Oeste 0 -- -- 41
2020-07-30 22:00:00 32.8 9 Noroeste 18 Noroeste 0 -- -- 35
2020-07-30 21:00:00 35.9 9 Oeste 21 Oeste 0 -- -- 27
2020-07-30 20:00:00 37.8 12 Sudoeste 24 Sudoeste 0 -- -- 27
2020-07-30 19:00:00 38.3 9 Sudoeste 23 Sudoeste 0 -- -- 27
2020-07-30 18:00:00 38.1 14 Sudoeste 26 Sudoeste 0 -- -- 28
2020-07-30 17:00:00 37.9 17 Sudoeste 30 Sudoeste 0 -- -- 25
2020-07-30 16:00:00 36.9 12 Sudoeste 30 Sudoeste 0 -- -- 33
2020-07-30 15:00:00 36.2 14 Sudoeste 31 Sudoeste 0 -- -- 36
2020-07-30 14:00:00 35.2 18 Sudoeste 35 Sudoeste 0 -- -- 38
2020-07-30 13:00:00 34.2 15 Sudoeste 31 Sudoeste 0 -- -- 41
2020-07-30 12:00:00 32 15 Sudoeste 27 Sudoeste 0 -- -- 44
2020-07-30 11:00:00 29.4 13 Sudoeste 24 Sudoeste 0 -- -- 51
2020-07-30 10:00:00 26.2 10 Sudoeste 19 Sudoeste 0 -- -- 56
2020-07-30 09:00:00 23.8 8 Sudoeste 14 Sudoeste 0 -- -- 66
2020-07-30 08:00:00 22.7 5 Sudoeste 11 Sudoeste 0 -- -- 64
2020-07-30 07:00:00 22.7 6 Oeste 14 Sudoeste 0 -- -- 62
2020-07-30 06:00:00 23.1 6 Sur 12 Sudoeste 0 -- -- 58
2020-07-30 05:00:00 24.1 7 Sudoeste 12 Sudoeste 0 -- -- 51
2020-07-30 04:00:00 24.4 4 Sudoeste 11 Oeste 0 -- -- 54
2020-07-30 03:00:00 24.5 6 Noroeste 11 Noroeste 0 -- -- 51
2020-07-30 02:00:00 25.9 3 Norte 9 Oeste 0 -- -- 42
2020-07-30 01:00:00 28.6 4 Oeste 21 Sudoeste 0 -- -- 39
2020-07-30 00:00:00 30.5 11 Sudoeste 30 Noroeste 0 -- -- 34
2020-07-29 23:00:00 31.9 15 Noroeste 26 Noroeste 0 -- -- 30
2020-07-29 22:00:00 34.3 9 Noroeste 18 Oeste 0 -- -- 29
2020-07-29 21:00:00 38.1 7 Sudoeste 12 Sudoeste 0 -- -- 26
2020-07-29 20:00:00 40.6 5 Sudoeste 20 Sudoeste 0 -- -- 20
2020-07-29 19:00:00 41.1 9 Oeste 17 Oeste 0 -- -- 19
2020-07-29 18:00:00 40.8 7 Sudoeste 17 Noroeste 0 -- -- 19
2020-07-29 17:00:00 39.9 7 Sudoeste 19 Sudoeste 0 -- -- 22
2020-07-29 16:00:00 38.9 7 Oeste 16 Sur 0 -- -- 24
2020-07-29 15:00:00 37.3 8 Sudoeste 14 Sudoeste 0 -- -- 26
2020-07-29 14:00:00 35 4 Sur 13 Sur 0 -- -- 31
2020-07-29 13:00:00 31.6 6 Sudeste 11 Sudeste 0 -- -- 39
2020-07-29 12:00:00 28.1 3 Noroeste 12 Nordeste 0 -- -- 49
2020-07-29 11:00:00 24.9 4 Norte 11 Nordeste 0 -- -- 60
2020-07-29 10:00:00 21.3 4 Noroeste 8 Noroeste 0 -- -- 72
2020-07-29 09:00:00 18.4 4 Noroeste 10 Noroeste 0 -- -- 83
2020-07-29 08:00:00 16.6 5 Noroeste 10 Noroeste 0 -- -- 90
2020-07-29 07:00:00 17 5 Noroeste 12 Noroeste 0 -- -- 87
2020-07-29 06:00:00 17.4 3 Noroeste 8 Noroeste 0 -- -- 84
2020-07-29 05:00:00 18.7 5 Oeste 12 Sudoeste 0 -- -- 79
2020-07-29 04:00:00 19.5 6 Noroeste 16 Noroeste 0 -- -- 76
2020-07-29 03:00:00 21.1 12 Noroeste 23 Noroeste 0 -- -- 70
2020-07-29 02:00:00 22.1 11 Oeste 23 Oeste 0 -- -- 65
2020-07-29 01:00:00 23.5 10 Oeste 28 Oeste 0 -- -- 61
2020-07-29 00:00:00 25.6 20 Noroeste 34 Noroeste 0 -- -- 54
2020-07-28 23:00:00 28.4 19 Noroeste 34 Noroeste 0 -- -- 46
2020-07-28 22:00:00 31.3 14 Noroeste 23 Noroeste 0 -- -- 37
2020-07-28 21:00:00 34.2 14 Noroeste 26 Oeste 0 -- -- 34
2020-07-28 20:00:00 37.5 12 Noroeste 24 Oeste 0 -- -- 29
2020-07-28 19:00:00 38.4 10 Noroeste 21 Noroeste 0 -- -- 27
2020-07-28 18:00:00 37.9 10 Sudoeste 21 Sur 0 -- -- 28
2020-07-28 17:00:00 36.8 7 Sur 16 Sur 0 -- -- 33
2020-07-28 16:00:00 34.9 6 Sudoeste 15 Sur 0 -- -- 38
2020-07-28 15:00:00 33 4 Sur 17 Sudoeste 0 -- -- 43
2020-07-28 14:00:00 31 7 Sur 22 Sudoeste 0 -- -- 48
2020-07-28 13:00:00 28.7 8 Sur 20 Sudoeste 0 -- -- 53
2020-07-28 12:00:00 26.5 8 Sur 20 Sur 0 -- -- 59
2020-07-28 11:00:00 24 8 Sudoeste 17 Oeste 0 -- -- 67
2020-07-28 10:00:00 22 5 Sudoeste 15 Sur 0 -- -- 74
2020-07-28 09:00:00 20.4 5 Oeste 12 Oeste 0 -- -- 81
2020-07-28 08:00:00 18.8 5 Sudoeste 12 Sudoeste 0 -- -- 86
2020-07-28 07:00:00 18.9 7 Sudoeste 15 Sudoeste 0 -- -- 85
2020-07-28 06:00:00 19.2 3 Sudoeste 12 Noroeste 0 -- -- 84
2020-07-28 05:00:00 19.6 4 Noroeste 12 Sudoeste 0 -- -- 79
2020-07-28 04:00:00 20.6 5 Sudoeste 13 Oeste 0 -- -- 78
2020-07-28 03:00:00 20.9 9 Oeste 24 Oeste 0 -- -- 76
2020-07-28 02:00:00 22.1 11 Noroeste 20 Oeste 0 -- -- 71
2020-07-28 01:00:00 23.5 12 Oeste 24 Oeste 0 -- -- 66
2020-07-28 00:00:00 25.6 13 Oeste 30 Oeste 0 -- -- 59
2020-07-27 23:00:00 28 15 Oeste 38 Oeste 0 -- -- 52
2020-07-27 22:00:00 30.1 19 Noroeste 38 Noroeste 0 -- -- 44
2020-07-27 21:00:00 33.8 22 Noroeste 37 Noroeste 0 -- -- 37
2020-07-27 20:00:00 35.8 9 Sudoeste 18 Sudoeste 0 -- -- 35
2020-07-27 19:00:00 37.3 12 Sudoeste 23 Sudoeste 0 -- -- 32
2020-07-27 18:00:00 38 15 Sudoeste 28 Sudoeste 0 -- -- 31
2020-07-27 17:00:00 38.5 12 Sudoeste 27 Oeste 0 -- -- 31
2020-07-27 16:00:00 37.4 12 Oeste 24 Oeste 0 -- -- 31
2020-07-27 15:00:00 36.2 13 Sudoeste 28 Sudoeste 0 -- -- 34
2020-07-27 14:00:00 34.9 14 Sudoeste 30 Sudoeste 0 -- -- 37
2020-07-27 13:00:00 33.2 14 Oeste 26 Sudoeste 0 -- -- 41
2020-07-27 12:00:00 31 10 Sudoeste 21 Sudoeste 0 -- -- 46
2020-07-27 09:00:00 22.6 5 Sur 11 Sur 0 -- -- 65
2020-07-27 08:00:00 19.9 0 Calma 10 Noroeste 0 -- -- 68
2020-07-27 07:00:00 20.1 5 Norte 9 Norte 0 -- -- 71
2020-07-27 06:00:00 21.3 0 Calma 8 Sudoeste 0 -- -- 70
2020-07-27 05:00:00 22.9 5 Sudoeste 13 Sur 0 -- -- 68
2020-07-27 04:00:00 24.4 6 Sudoeste 12 Sudoeste 0 -- -- 61
2020-07-27 03:00:00 25.2 5 Noroeste 10 Oeste 0 -- -- 58
2020-07-27 02:00:00 27 4 Noroeste 20 Noroeste 0 -- -- 53
2020-07-27 01:00:00 28.8 16 Noroeste 26 Noroeste 0 -- -- 49
2020-07-27 00:00:00 30.8 17 Noroeste 26 Noroeste 0 -- -- 42
2020-07-26 23:00:00 32.8 14 Noroeste 25 Noroeste 0 -- -- 33
2020-07-26 22:00:00 35.2 9 Noroeste 19 Noroeste 0 -- -- 26
2020-07-26 21:00:00 39.1 8 Noroeste 15 Noroeste 0 -- -- 22
2020-07-26 20:00:00 41.7 6 Noroeste 15 Oeste 0 -- -- 19
2020-07-26 19:00:00 42 5 Sudoeste 15 Sur 0 -- -- 19
2020-07-26 18:00:00 42 6 Sudoeste 15 Sudoeste 0 -- -- 19
2020-07-26 17:00:00 41.6 9 Sudoeste 15 Sur 0 -- -- 19
2020-07-26 16:00:00 40.5 6 Sur 15 Sudoeste 0 -- -- 21
2020-07-26 15:00:00 38.3 6 Sudoeste 15 Sur 0 -- -- 25
2020-07-26 14:00:00 36.2 5 Sudoeste 13 Sudoeste 0 -- -- 28
2020-07-26 13:00:00 34.8 4 Nordeste 9 Este 0 -- -- 29
2020-07-26 12:00:00 32.1 6 Nordeste 14 Nordeste 0 -- -- 33
2020-07-26 11:00:00 27.3 5 Noroeste 11 Noroeste 0 -- -- 47
2020-07-26 10:00:00 23.5 7 Noroeste 14 Noroeste 0 -- -- 58
2020-07-26 09:00:00 20 5 Noroeste 12 Noroeste 0 -- -- 67
2020-07-26 08:00:00 17.9 5 Noroeste 8 Oeste 0 -- -- 71
2020-07-26 07:00:00 18.1 4 Noroeste 10 Noroeste 0 -- -- 69
2020-07-26 06:00:00 18.8 4 Oeste 13 Noroeste 0 -- -- 66
2020-07-26 05:00:00 19.7 6 Noroeste 11 Noroeste 0 -- -- 63
2020-07-26 04:00:00 20.7 4 Oeste 17 Noroeste 0 -- -- 59
2020-07-26 03:00:00 22 8 Noroeste 15 Noroeste 0 -- -- 53
2020-07-26 02:00:00 23.2 10 Noroeste 24 Noroeste 0 -- -- 50
2020-07-26 01:00:00 24.8 11 Noroeste 32 Oeste 0 -- -- 45
2020-07-26 00:00:00 26.8 16 Noroeste 37 Noroeste 0 -- -- 43
2020-07-25 23:00:00 30.1 18 Noroeste 31 Noroeste 0 -- -- 33
2020-07-25 22:00:00 32.4 17 Noroeste 31 Noroeste 0 -- -- 25
2020-07-25 21:00:00 35.6 18 Noroeste 32 Oeste 0 -- -- 26
2020-07-25 20:00:00 39.3 14 Noroeste 25 Oeste 0 -- -- 22
2020-07-25 19:00:00 40.6 9 Noroeste 23 Oeste 0 -- -- 17
2020-07-25 18:00:00 40.5 13 Noroeste 24 Oeste 0 -- -- 19
2020-07-25 17:00:00 40 10 Oeste 23 Oeste 0 -- -- 20
2020-07-25 16:00:00 38.9 9 Sudoeste 18 Sudoeste 0 -- -- 22
2020-07-25 15:00:00 37.5 9 Sur 19 Sudoeste 0 -- -- 25
2020-07-25 14:00:00 36 9 Oeste 16 Oeste 0 -- -- 29
2020-07-25 13:00:00 33.7 3 Norte 11 Norte 0 -- -- 32
2020-07-25 12:00:00 29.5 4 Sur 9 Sur 0 -- -- 45
2020-07-25 11:00:00 25.4 5 Sudoeste 10 Sudoeste 0 -- -- 56
2020-07-25 10:00:00 22.2 3 Sudoeste 9 Oeste 0 -- -- 64
2020-07-25 09:00:00 19.2 3 Oeste 8 Oeste 0 -- -- 75
2020-07-25 08:00:00 16.6 3 Noroeste 9 Noroeste 0 -- -- 82
2020-07-25 07:00:00 16.5 0 Calma 5 Noroeste 0 -- -- 81
2020-07-25 06:00:00 17 3 Oeste 5 Oeste 0 -- -- 73
2020-07-25 05:00:00 18.5 3 Sudoeste 5 Sudoeste 0 -- -- 67
2020-07-25 04:00:00 19.8 3 Oeste 10 Sur 0 -- -- 64
2020-07-25 03:00:00 20.5 6 Noroeste 12 Norte 0 -- -- 62
2020-07-25 02:00:00 22.5 2 Noroeste 13 Oeste 0 -- -- 52
2020-07-25 01:00:00 23.7 6 Oeste 14 Oeste 0 -- -- 49
2020-07-25 00:00:00 25.2 8 Oeste 31 Noroeste 0 -- -- 43
2020-07-24 23:00:00 27.5 19 Noroeste 32 Noroeste 0 -- -- 37
2020-07-24 22:00:00 30 16 Noroeste 31 Noroeste 0 -- -- 31
2020-07-24 21:00:00 33.8 18 Noroeste 32 Oeste 0 -- -- 25
2020-07-24 20:00:00 37.5 18 Noroeste 30 Noroeste 0 -- -- 19
2020-07-24 19:00:00 38.9 13 Oeste 28 Noroeste 0 -- -- 18
2020-07-24 18:00:00 39.7 14 Oeste 24 Noroeste 0 -- -- 18
2020-07-24 17:00:00 39.3 7 Oeste 16 Oeste 0 -- -- 19
2020-07-24 16:00:00 37.8 8 Sudoeste 19 Sudoeste 0 -- -- 28
2020-07-24 15:00:00 36.7 8 Sudoeste 18 Sudoeste 0 -- -- 29
2020-07-24 14:00:00 34.7 9 Sudoeste 17 Sudoeste 0 -- -- 35
2020-07-24 13:00:00 31.7 8 Sudoeste 14 Sudoeste 0 -- -- 42
2020-07-24 12:00:00 28.9 5 Sudoeste 14 Sudoeste 0 -- -- 47
2020-07-24 11:00:00 25.9 6 Sudoeste 12 Sudoeste 0 -- -- 55
2020-07-24 10:00:00 23.1 5 Sudoeste 10 Sur 0 -- -- 62
2020-07-24 09:00:00 20.5 0 Calma 6 Norte 0 -- -- 71
2020-07-24 08:00:00 18.4 0 Calma 7 Oeste 0 -- -- 76
2020-07-24 07:00:00 19 4 Oeste 8 Noroeste 0 -- -- 74
2020-07-24 06:00:00 19.9 4 Noroeste 10 Oeste 0 -- -- 71
2020-07-24 05:00:00 21.3 6 Noroeste 14 Oeste 0 -- -- 68
2020-07-24 04:00:00 22.3 7 Noroeste 12 Noroeste 0 -- -- 67
2020-07-24 03:00:00 23.1 3 Noroeste 10 Oeste 0 -- -- 63
2020-07-24 02:00:00 24.8 6 Noroeste 23 Noroeste 0 -- -- 57
2020-07-24 01:00:00 26.5 12 Noroeste 25 Noroeste 0 -- -- 52
2020-07-24 00:00:00 28.5 15 Noroeste 29 Noroeste 0 -- -- 48
2020-07-23 23:00:00 30.7 17 Noroeste 31 Noroeste 0 -- -- 41
2020-07-23 22:00:00 32.7 10 Oeste 21 Noroeste 0 -- -- 33
2020-07-23 21:00:00 35.4 13 Oeste 29 Oeste 0 -- -- 28
2020-07-23 20:00:00 38.1 13 Oeste 27 Oeste 0 -- -- 26
2020-07-23 19:00:00 39.2 9 Oeste 22 Sudoeste 0 -- -- 24
2020-07-23 18:00:00 39.3 13 Sudoeste 22 Sudoeste 0 -- -- 24
2020-07-23 17:00:00 39 9 Oeste 25 Sudoeste 0 -- -- 25
2020-07-23 16:00:00 39 10 Sudoeste 22 Sur 0 -- -- 26
2020-07-23 15:00:00 37.9 9 Oeste 22 Oeste 0 -- -- 27
2020-07-23 14:00:00 36.6 8 Oeste 19 Sudoeste 0 -- -- 29
2020-07-23 13:00:00 33.4 8 Sudoeste 17 Sur 0 -- -- 39
2020-07-23 12:00:00 30.5 9 Sudoeste 17 Sur 0 -- -- 45
2020-07-23 11:00:00 27.6 7 Sudoeste 12 Sudoeste 0 -- -- 53
2020-07-23 10:00:00 25.6 3 Sur 6 Oeste 0 -- -- 58
2020-07-23 09:00:00 22.8 6 Sudoeste 12 Sudoeste 0 -- -- 65
2020-07-23 08:00:00 21.3 4 Sudoeste 8 Sudoeste 0 -- -- 67
2020-07-23 07:00:00 20.8 0 Calma 4 Oeste 0 -- -- 67
2020-07-23 06:00:00 22.4 2 Sudoeste 9 Sudoeste 0 -- -- 61
2020-07-23 05:00:00 22.6 3 Sudoeste 8 Noroeste 0 -- -- 60
2020-07-23 04:00:00 23.5 3 Noroeste 10 Noroeste 0 -- -- 56
2020-07-23 03:00:00 24.9 4 Noroeste 13 Oeste 0 -- -- 52
2020-07-23 02:00:00 25.9 7 Noroeste 22 Noroeste 0 -- -- 50
2020-07-23 01:00:00 27.2 13 Noroeste 27 Noroeste 0 -- -- 45
2020-07-23 00:00:00 28.5 16 Noroeste 33 Oeste 0 -- -- 42
2020-07-22 23:00:00 29.7 14 Noroeste 30 Noroeste 0 -- -- 42
2020-07-22 22:00:00 31.8 3 Norte 14 Norte 0 -- -- 36
2020-07-22 21:00:00 34.7 13 Norte 21 Norte 0 -- -- 30
2020-07-22 20:00:00 37.3 9 Noroeste 20 Norte 0 -- -- 26
2020-07-22 19:00:00 38 10 Noroeste 20 Noroeste 0 -- -- 28
2020-07-22 18:00:00 37.3 5 Norte 23 Noroeste 0 -- -- 27
2020-07-22 17:00:00 37.2 9 Oeste 19 Norte 0 -- -- 28
2020-07-22 16:00:00 35.7 4 Sur 15 Nordeste 0 -- -- 35
2020-07-22 15:00:00 33.9 8 Sur 20 Sudoeste 0 -- -- 40
2020-07-22 14:00:00 32.6 9 Sur 20 Oeste 0 -- -- 44
2020-07-22 13:00:00 30.5 9 Sudoeste -- -- -- -- -- 50
2020-07-22 12:00:00 -- -- -- -- -- -- -- -- --
2020-07-22 11:00:00 25.9 9 Sudoeste 19 Oeste 0 -- -- 68
2020-07-22 10:00:00 23.7 8 Sudoeste 16 Sudoeste 0 -- -- 77
2020-07-22 09:00:00 21.7 5 Sudoeste 12 Sudoeste 0 -- -- 82
2020-07-22 08:00:00 20.3 4 Oeste 11 Sudoeste 0 -- -- 87
2020-07-22 07:00:00 20.5 5 Sur 8 Sudoeste 0 -- -- 88
2020-07-22 06:00:00 20.8 3 Sudeste 11 Sudoeste 0 -- -- 88
2020-07-22 05:00:00 21.2 5 Sudoeste 11 Sur 0 -- -- 89
2020-07-22 04:00:00 21.2 4 Noroeste 9 Noroeste 0 -- -- 89
2020-07-22 03:00:00 21.6 2 Oeste 8 Oeste 0 -- -- 86
2020-07-22 02:00:00 22.2 5 Norte 9 Noroeste 0 -- -- 84
2020-07-22 01:00:00 23.3 0 Calma 10 Este 0 -- -- 79
2020-07-22 00:00:00 23.4 3 Este 8 Sudoeste 0 -- -- 78
2020-07-21 23:00:00 24.7 4 Oeste 12 Oeste 0 -- -- 72
2020-07-21 22:00:00 25.9 4 Sudeste 21 Este 0 -- -- 65
2020-07-21 21:00:00 27.2 12 Este 23 Este 0 -- -- 57
2020-07-21 20:00:00 29.2 6 Este 25 Nordeste 0 -- -- 52
2020-07-21 19:00:00 30 17 Nordeste 34 Nordeste 1.2 -- -- 52
2020-07-21 18:00:00 30.9 23 Nordeste 39 Nordeste 0 -- -- 46
2020-07-21 17:00:00 31.5 26 Nordeste 35 Nordeste 0 -- -- 43
2020-07-21 16:00:00 30.9 19 Nordeste 26 Nordeste 0 -- -- 41
2020-07-21 15:00:00 28.3 10 Nordeste 19 Nordeste 0.2 -- -- 60
2020-07-21 14:00:00 28.5 8 Nordeste 18 Nordeste 0.2 -- -- 49
2020-07-21 13:00:00 28.7 7 Este 17 Nordeste 0.6 -- -- 57
2020-07-21 12:00:00 30 5 Sudeste 9 Este 0 -- -- 43
2020-07-21 11:00:00 26 3 Norte 8 Norte 0.2 -- -- 69
2020-07-21 10:00:00 24.5 3 Noroeste 6 Noroeste 0 -- -- 69
2020-07-21 09:00:00 21.1 2 Oeste 19 Sudoeste 0.2 -- -- 84
2020-07-21 08:00:00 22.6 10 Sudoeste 30 Oeste 1.4 -- -- 77
2020-07-21 07:00:00 24.2 5 Sudoeste 13 Sur 0 -- -- 57
2020-07-21 06:00:00 24 8 Sur 14 Sur 0 -- -- 54
2020-07-21 05:00:00 24.7 4 Sudoeste 22 Sur 0 -- -- 58
2020-07-21 04:00:00 24.3 8 Oeste 28 Sur 0.2 -- -- 52
2020-07-21 03:00:00 24.5 3 Noroeste 6 Norte 0 -- -- 31
2020-07-21 02:00:00 26.7 4 Norte 12 Nordeste 0 -- -- 28
2020-07-21 01:00:00 25.7 4 Nordeste 8 Nordeste 0 -- -- 28
2020-07-21 00:00:00 27 5 Noroeste 8 Noroeste 0 -- -- 28
2020-07-20 23:00:00 28.7 5 Norte 11 Norte 0 -- -- 24
2020-07-20 22:00:00 31.8 6 Norte 13 Norte 0 -- -- 21
2020-07-20 21:00:00 37.3 7 Norte 19 Norte 0 -- -- 19
2020-07-20 20:00:00 39.6 13 Norte 26 Noroeste 0 -- -- 16
2020-07-20 19:00:00 40.4 14 Noroeste 26 Noroeste 0 -- -- 16
2020-07-20 18:00:00 40 9 Noroeste 23 Oeste 0 -- -- 16
2020-07-20 17:00:00 40.5 10 Oeste 26 Noroeste 0 -- -- 16
2020-07-20 16:00:00 39.9 9 Noroeste 26 Oeste 0 -- -- 17
2020-07-20 15:00:00 40 10 Norte 19 Norte 0 -- -- 19
2020-07-20 14:00:00 37.7 5 Sudoeste 18 Sudeste 0 -- -- 25
2020-07-20 13:00:00 35.8 7 Sudoeste 17 Sudoeste 0 -- -- 30
2020-07-20 12:00:00 33 7 Noroeste 12 Oeste 0 -- -- 34
2020-07-20 11:00:00 29.4 4 Norte 9 Nordeste 0 -- -- 44
2020-07-20 10:00:00 25.9 4 Norte 10 Noroeste 0 -- -- 53
2020-07-20 09:00:00 21.8 4 Norte 9 Norte 0 -- -- 68
2020-07-20 08:00:00 19.1 -- -- -- -- 0 -- -- 69
2020-07-20 07:00:00 19.2 2 Sudoeste 6 Noroeste 0 -- -- 73
2020-07-20 06:00:00 19 3 Noroeste 5 Sudoeste 0 -- -- 56
2020-07-20 05:00:00 19.8 2 Noroeste 6 Sudoeste 0 -- -- 52
2020-07-20 04:00:00 21.7 4 Sur 9 Sudoeste 0 -- -- 48
2020-07-20 03:00:00 22.7 4 Sudoeste 7 Sudoeste 0 -- -- 50
2020-07-20 02:00:00 24.4 4 Sudoeste 10 Oeste 0 -- -- 48
2020-07-20 01:00:00 25 4 Oeste 9 Oeste 0 -- -- 45
2020-07-20 00:00:00 27 0 Calma 10 Noroeste 0 -- -- 38
2020-07-19 23:00:00 28.8 7 Noroeste 11 Oeste 0 -- -- 33
2020-07-19 22:00:00 31.6 9 Oeste 17 Oeste 0 -- -- 26
2020-07-19 21:00:00 34.9 12 Noroeste 29 Oeste 0 -- -- 22
2020-07-19 20:00:00 37.5 15 Oeste 28 Oeste 0 -- -- 20
2020-07-19 19:00:00 38.7 10 Oeste 34 Sur 0 -- -- 20
2020-07-19 18:00:00 38.7 13 Sudoeste 27 Oeste 0 -- -- 19
2020-07-19 17:00:00 38.3 12 Sudoeste 28 Sudoeste 0 -- -- 18
2020-07-19 16:00:00 36.9 15 Sudoeste 30 Sudoeste 0 -- -- 21
2020-07-19 15:00:00 35.4 14 Sur 26 Sudoeste 0 -- -- 24
2020-07-19 14:00:00 33.3 12 Sudoeste 21 Sudoeste 0 -- -- 30
2020-07-19 13:00:00 30.9 13 Sudoeste 26 Sudoeste 0 -- -- 35
2020-07-19 12:00:00 28.4 8 Sudoeste 19 Sudoeste 0 -- -- 48
2020-07-19 11:00:00 25.6 9 Sudoeste 17 Sudoeste 0 -- -- 55
2020-07-19 10:00:00 22.8 9 Sudoeste 16 Sudeste 0 -- -- 61
2020-07-19 09:00:00 20.5 8 Sudoeste 13 Sudoeste 0 -- -- 69
2020-07-19 08:00:00 18.6 6 Sudoeste 13 Sudoeste 0 -- -- 73
2020-07-19 07:00:00 19.5 4 Sudoeste 12 Sudoeste 0 -- -- 71
2020-07-19 06:00:00 20.6 5 Sudoeste 9 Sudoeste 0 -- -- 68
2020-07-19 05:00:00 22.2 4 Sudoeste 8 Sudoeste 0 -- -- 60
2020-07-19 04:00:00 23.4 4 Sudoeste 12 Sudoeste 0 -- -- 53
2020-07-19 03:00:00 24.6 7 Sudoeste 12 Sudoeste 0 -- -- 52
2020-07-19 02:00:00 25.7 3 Sur 11 Sudoeste 0 -- -- 43
2020-07-19 01:00:00 27.2 8 Sudoeste 16 Sudoeste 0 -- -- 41
2020-07-19 00:00:00 29 8 Sudoeste 17 Sudoeste 0 -- -- 34
2020-07-18 23:00:00 31.5 10 Sudoeste 25 Oeste 0 -- -- 29
2020-07-18 22:00:00 33.7 12 Oeste 28 Oeste 0 -- -- 29
2020-07-18 21:00:00 36.5 18 Oeste 31 Sudoeste 0 -- -- 23
2020-07-18 20:00:00 39 17 Oeste 36 Sudoeste 0 -- -- 24
2020-07-18 19:00:00 40.7 14 Sudoeste 25 Sur 0 -- -- 24
2020-07-18 18:00:00 41.1 12 Sur 22 Sur 0 -- -- 22
2020-07-18 17:00:00 40.4 9 Sudoeste 22 Sudoeste 0 -- -- 21
2020-07-18 16:00:00 39.7 10 Sudoeste 22 Sudoeste 0 -- -- 22
2020-07-18 15:00:00 38.3 9 Sudoeste 17 Sudoeste 0 -- -- 21
2020-07-18 14:00:00 36.4 6 Sudoeste 19 Sudoeste 0 -- -- 28
2020-07-18 13:00:00 34.7 5 Sur 13 Sur 0 -- -- 25
2020-07-18 12:00:00 31.7 7 Sudoeste 14 Sudoeste 0 -- -- 30
2020-07-18 11:00:00 29.5 7 Sudoeste 12 Sudoeste 0 -- -- 35
2020-07-18 10:00:00 26.1 4 Sudoeste 9 Sur 0 -- -- 49
2020-07-18 09:00:00 23.7 5 Sudoeste 10 Sudoeste 0 -- -- 55
2020-07-18 08:00:00 22 4 Sudoeste 10 Sur 0 -- -- 60
2020-07-18 07:00:00 22.3 4 Sudoeste 12 Sudoeste 0 -- -- 57
2020-07-18 06:00:00 23.5 5 Sudoeste 14 Sudoeste 0 -- -- 54
2020-07-18 05:00:00 24.2 4 Sudoeste 12 Sudoeste 0 -- -- 52
2020-07-18 04:00:00 25.2 4 Sudoeste 14 Sudoeste 0 -- -- 49
2020-07-18 03:00:00 26.7 8 Sudoeste 13 Sudoeste 0 -- -- 45
2020-07-18 02:00:00 28.2 6 Sudoeste 14 Noroeste 0 -- -- 44
2020-07-18 01:00:00 30.5 10 Noroeste 22 Noroeste 0 -- -- 37
2020-07-18 00:00:00 32.5 14 Noroeste 30 Noroeste 0 -- -- 34
2020-07-17 23:00:00 34.1 16 Noroeste 27 Noroeste 0 -- -- 33
2020-07-17 22:00:00 35.9 12 Oeste 23 Oeste 0 -- -- 31
2020-07-17 21:00:00 39.2 5 Sudoeste 13 Sur 0 -- -- 25
2020-07-17 20:00:00 41.1 8 Sur 15 Sudoeste 0 -- -- 22
2020-07-17 19:00:00 41.5 8 Sudoeste 18 Sur 0 -- -- 21
2020-07-17 18:00:00 42.2 5 Sudoeste 16 Sur 0 -- -- 21
2020-07-17 17:00:00 41.5 7 Sudoeste 17 Sur 0 -- -- 22
2020-07-17 16:00:00 40.8 5 Nordeste 15 Este 0 -- -- 21
2020-07-17 15:00:00 39.3 6 Nordeste 12 Sur 0 -- -- 24
2020-07-17 14:00:00 36.7 5 Sur 13 Sudoeste 0 -- -- 28
2020-07-17 13:00:00 34.5 7 Sudoeste 15 Sur 0 -- -- 32
2020-07-17 12:00:00 32.4 7 Sudoeste 17 Sudoeste 0 -- -- 38
2020-07-17 11:00:00 29.9 10 Sudoeste 17 Sudoeste 0 -- -- 43
2020-07-17 10:00:00 27.7 10 Sudoeste 19 Sudoeste 0 -- -- 48
2020-07-17 09:00:00 26.1 9 Sudoeste 17 Oeste 0 -- -- 52
2020-07-17 08:00:00 24.6 8 Sudoeste 14 Sudoeste 0 -- -- 54
2020-07-17 07:00:00 24.7 7 Sudoeste 14 Sudoeste 0 -- -- 52
2020-07-17 06:00:00 24.4 3 Sudoeste 8 Sudoeste 0 -- -- 53
2020-07-17 05:00:00 25 4 Sudoeste 8 Sudoeste 0 -- -- 51
2020-07-17 04:00:00 25.7 5 Sudoeste 15 Noroeste 0 -- -- 51
2020-07-17 03:00:00 25.9 6 Norte 22 Sudoeste 0 -- -- 45
2020-07-17 02:00:00 27 5 Norte 10 Noroeste 0 -- -- 41
2020-07-17 01:00:00 29.8 5 Oeste 11 Nordeste 0 -- -- 38
2020-07-17 00:00:00 30.7 6 Nordeste 12 Norte 0 -- -- 35
2020-07-16 23:00:00 31.9 3 Norte 5 Norte 0 -- -- 32
2020-07-16 22:00:00 35.3 3 Noroeste 8 Este 0 -- -- 28
2020-07-16 21:00:00 38.9 4 Nordeste 9 Sudoeste 0 -- -- 23
2020-07-16 20:00:00 40.9 6 Sur 13 Sur 0 -- -- 22
2020-07-16 19:00:00 41.4 8 Sudoeste 18 Sur 0 -- -- 20
2020-07-16 18:00:00 41.8 7 Noroeste 17 Nordeste 0 -- -- 22
2020-07-16 17:00:00 41.4 8 Nordeste 17 Norte 0 -- -- 22
2020-07-16 16:00:00 40.3 6 Este 18 Este 0 -- -- 24
2020-07-16 15:00:00 39.7 5 Norte 18 Este 0 -- -- 26
2020-07-16 14:00:00 38.6 7 Nordeste 16 Norte 0 -- -- 26
2020-07-16 13:00:00 36.6 6 Nordeste 17 Este 0 -- -- 30
2020-07-16 12:00:00 33.7 9 Este 20 Este 0 -- -- 35
2020-07-16 11:00:00 31.7 9 Este 22 Este 0 -- -- 38
2020-07-16 10:00:00 29.7 6 Este 18 Nordeste 0 -- -- 39
2020-07-16 09:00:00 28 9 Nordeste 17 Nordeste 0 -- -- 35
2020-07-16 08:00:00 24 8 Nordeste 12 Nordeste 0 -- -- 40
2020-07-16 07:00:00 23.7 2 Sur 8 Norte 0 -- -- 42
2020-07-16 06:00:00 23.5 7 Norte 13 Norte 0 -- -- 40
2020-07-16 05:00:00 24.4 3 Noroeste 8 Sur 0 -- -- 38
2020-07-16 04:00:00 26.1 4 Sudoeste 12 Nordeste 0 -- -- 34
2020-07-16 03:00:00 27.7 9 Nordeste 20 Norte 0 -- -- 31
2020-07-16 02:00:00 28.3 14 Norte 18 Norte 0 -- -- 32
2020-07-16 01:00:00 28.5 14 Nordeste 16 Norte 0 -- -- 34
2020-07-16 00:00:00 30.3 14 Norte 18 Nordeste 0 -- -- 32
2020-07-15 23:00:00 31.1 12 Norte 14 Norte 0 -- -- 33
2020-07-15 22:00:00 33.9 3 Norte 8 Nordeste 0 -- -- 33
2020-07-15 21:00:00 36.8 5 Este 13 Sudeste 0 -- -- 28
2020-07-15 20:00:00 38.7 5 Norte 15 Sudeste 0 -- -- 25
2020-07-15 19:00:00 39.3 6 Nordeste 15 Nordeste 0 -- -- 24
2020-07-15 18:00:00 39 4 Nordeste 20 Este 0 -- -- 26
2020-07-15 17:00:00 38.3 10 Sudeste 22 Nordeste 0 -- -- 27
2020-07-15 16:00:00 38.1 6 Nordeste 20 Sudeste 0 -- -- 28
2020-07-15 15:00:00 36.4 7 Este 20 Nordeste 0 -- -- 29
2020-07-15 14:00:00 34.9 8 Nordeste 19 Sudeste 0 -- -- 29
2020-07-15 13:00:00 32.4 4 Este 13 Sudeste 0 -- -- 34
2020-07-15 12:00:00 30.5 6 Sudeste 13 Este 0 -- -- 35
2020-07-15 11:00:00 29 6 Nordeste 14 Norte 0 -- -- 40
2020-07-15 10:00:00 24.9 3 Sudoeste 11 Oeste 0 -- -- 51
2020-07-15 09:00:00 21.7 3 Oeste 10 Sudoeste 0 -- -- 61
2020-07-15 08:00:00 19.7 4 Sur 11 Sur 0 -- -- 66
2020-07-15 07:00:00 20.1 3 Sudoeste 13 Sudoeste 0 -- -- 61
2020-07-15 06:00:00 20 3 Noroeste 13 Noroeste 0 -- -- 63
2020-07-15 05:00:00 21 10 Noroeste 15 Noroeste 0 -- -- 59
2020-07-15 04:00:00 22.1 6 Noroeste 11 Oeste 0 -- -- 52
2020-07-15 03:00:00 23.1 8 Noroeste 17 Noroeste 0 -- -- 49
2020-07-15 02:00:00 24.6 8 Norte 21 Noroeste 0 -- -- 45
2020-07-15 01:00:00 26.4 15 Noroeste 26 Noroeste 0 -- -- 42
2020-07-15 00:00:00 27.9 17 Noroeste 31 Noroeste 0 -- -- 40
2020-07-14 23:00:00 29.7 16 Noroeste 32 Noroeste 0 -- -- 37
2020-07-14 22:00:00 32.1 17 Noroeste 35 Noroeste 0 -- -- 34
2020-07-14 21:00:00 35 23 Noroeste 43 Oeste 0 -- -- 31
2020-07-14 20:00:00 39.3 14 Noroeste 26 Noroeste 0 -- -- 21
2020-07-14 19:00:00 40.2 11 Noroeste 23 Noroeste 0 -- -- 21
2020-07-14 18:00:00 40.5 13 Noroeste 26 Norte 0 -- -- 20
2020-07-14 17:00:00 40.9 13 Noroeste 31 Norte 0 -- -- 21
2020-07-14 16:00:00 40.2 14 Noroeste 28 Noroeste 0 -- -- 21
2020-07-14 15:00:00 39.9 14 Noroeste 28 Noroeste 0 -- -- 21
2020-07-14 14:00:00 39.3 10 Norte 24 Oeste 0 -- -- 23
2020-07-14 13:00:00 36.1 5 Sudeste 17 Norte 0 -- -- 29
2020-07-14 12:00:00 35.4 12 Norte 19 Nordeste 0 -- -- 30
2020-07-14 11:00:00 33.3 8 Norte 21 Nordeste 0 -- -- 32
2020-07-14 10:00:00 30.7 10 Norte 24 Nordeste 0 -- -- 35
2020-07-14 09:00:00 25.3 6 Noroeste 13 Noroeste 0 -- -- 54
2020-07-14 08:00:00 20.5 4 Noroeste 5 Noroeste 0 -- -- 66
2020-07-14 07:00:00 21.3 2 Noroeste 8 Noroeste 0 -- -- 64
2020-07-14 06:00:00 21.8 5 Noroeste 12 Noroeste 0 -- -- 62
2020-07-14 05:00:00 22.5 6 Norte 14 Noroeste 0 -- -- 57
2020-07-14 04:00:00 23.6 10 Noroeste 14 Noroeste 0 -- -- 46
2020-07-14 03:00:00 25.4 5 Noroeste 14 Norte 0 -- -- 39
2020-07-14 02:00:00 27.2 9 Norte 19 Noroeste 0 -- -- 36
2020-07-14 01:00:00 29.1 10 Noroeste 23 Norte 0 -- -- 33
2020-07-14 00:00:00 31.1 19 Norte 25 Norte 0 -- -- 31
2020-07-13 23:00:00 31.6 14 Norte 17 Norte 0 -- -- 29
2020-07-13 22:00:00 33.9 10 Norte 23 Noroeste 0 -- -- 28
2020-07-13 21:00:00 37.2 14 Norte 24 Norte 0 -- -- 24
2020-07-13 20:00:00 39.1 11 Norte 24 Norte 0 -- -- 22
2020-07-13 19:00:00 40.5 13 Norte 24 Norte 0 -- -- 20
2020-07-13 18:00:00 40.8 14 Norte 32 Norte 0 -- -- 20
2020-07-13 17:00:00 41.1 13 Norte 30 Norte 0 -- -- 21
2020-07-13 16:00:00 41 14 Norte 32 Norte 0 -- -- 23
2020-07-13 15:00:00 39.7 12 Norte 30 Nordeste 0 -- -- 25
2020-07-13 14:00:00 39.1 16 Norte 30 Norte 0 -- -- 26
2020-07-13 13:00:00 36.9 14 Norte 30 Norte 0 -- -- 31
2020-07-13 12:00:00 35.3 14 Norte 27 Norte 0 -- -- 35
2020-07-13 11:00:00 33.3 16 Norte 26 Norte 0 -- -- 38
2020-07-13 10:00:00 30.7 12 Norte 20 Norte 0 -- -- 44
2020-07-13 09:00:00 25.9 7 Norte 13 Norte 0 -- -- 54
2020-07-13 08:00:00 21 4 Norte 7 Noroeste 0 -- -- 65
2020-07-13 07:00:00 21.1 3 Norte 10 Noroeste 0 -- -- 61
2020-07-13 06:00:00 21.2 5 Norte 12 Noroeste 0 -- -- 59
2020-07-13 05:00:00 21.9 5 Norte 10 Norte 0 -- -- 56
2020-07-13 04:00:00 22.5 7 Noroeste 9 Noroeste 0 -- -- 53
2020-07-13 03:00:00 23.6 3 Noroeste 6 Sur 0 -- -- 50
2020-07-13 02:00:00 25.6 4 Oeste 8 Noroeste 0 -- -- 49
2020-07-13 01:00:00 26.8 6 Noroeste 9 Noroeste 0 -- -- 43
2020-07-13 00:00:00 29 6 Norte 17 Norte 0 -- -- 37